WetterOnline ( https://www.wetteronline.de )

Wetter aktuell Waldsolms

Aktuelles Wetter: Gießen (195m)

6-stündlich | Neueste Meldungen
Ortszeit Temperatur Wetter
Do, 27.01. 7:00 0.5° C bedeckt
Do, 27.01. 1:00 1.0° C bedeckt
Mi, 26.01. 19:00 1.5° C bedeckt
Mi, 26.01. 13:00 1.1° C bedeckt
Mi, 26.01. 7:00 0.1° C bedeckt
Mi, 26.01. 1:00 1.1° C bedeckt
Di, 25.01. 19:00 1.6° C bedeckt
Di, 25.01. 13:00 2.2° C bedeckt
Ortszeit Temperatur Wetter
Do, 27.01. 7:00 0.5° C bedeckt
Do, 27.01. 6:50 0.5° C bedeckt
Do, 27.01. 6:40 0.4° C bedeckt
Do, 27.01. 6:30 0.4° C bedeckt
Do, 27.01. 6:20 0.4° C bedeckt
Do, 27.01. 6:10 0.4° C bedeckt
Do, 27.01. 6:00 0.3° C bedeckt
Do, 27.01. 5:30 0.3° C bedeckt
Do, 27.01. 5:00 0.3° C bedeckt
Do, 27.01. 4:30 0.5° C bedeckt
Do, 27.01. 4:00 0.5° C bedeckt
Ortszeit Relative Feuchte Sichtweite
Do, 27.01. 7:00 83% 12 km
Do, 27.01. 1:00 83% 19 km
Mi, 26.01. 19:00 84% 11 km
Mi, 26.01. 13:00 84% 5.0 km
Mi, 26.01. 7:00 84% 14 km
Mi, 26.01. 1:00 86% 12 km
Di, 25.01. 19:00 88% 15 km
Di, 25.01. 13:00 88% 13 km
Ortszeit Relative Feuchte Sichtweite
Do, 27.01. 7:00 83% 12 km
Do, 27.01. 6:50 83% -
Do, 27.01. 6:40 84% -
Do, 27.01. 6:30 84% 12 km
Do, 27.01. 6:20 84% -
Do, 27.01. 6:10 84% -
Do, 27.01. 6:00 84% 11 km
Do, 27.01. 5:30 84% 11 km
Do, 27.01. 5:00 85% -
Do, 27.01. 4:30 88% 10 km
Do, 27.01. 4:00 90% 8 km
Ortszeit Niederschlagsmenge Niederschlagsart
Do, 27.01. 7:00 0.1 l/m2 in 12 Std. -
Do, 27.01. 1:00 0.1 l/m2 in 6 Std. Sprühregen
Mi, 26.01. 19:00 0.1 l/m2 in 12 Std. Sprühregen, Niederschlag
Mi, 26.01. 13:00 0.1 l/m2 in 6 Std. Regen
Mi, 26.01. 7:00 0.0 l/m2 in 12 Std. -
Mi, 26.01. 1:00 0.0 l/m2 in 6 Std. -
Di, 25.01. 19:00 0.0 l/m2 in 12 Std. -
Di, 25.01. 13:00 0.0 l/m2 in 6 Std. -
Ortszeit Niederschlagsmenge Niederschlagsart
Do, 27.01. 7:00 0.0 l/m2 in 1 Std. -
Do, 27.01. 6:50 keine Meldung -
Do, 27.01. 6:40 keine Meldung -
Do, 27.01. 6:30 0.0 l/m2 in 1 Std. -
Do, 27.01. 6:20 keine Meldung -
Do, 27.01. 6:10 keine Meldung -
Do, 27.01. 6:00 0.0 l/m2 in 1 Std. -
Do, 27.01. 5:30 0.0 l/m2 in 1 Std. -
Do, 27.01. 5:00 0.0 l/m2 in 1 Std. -
Do, 27.01. 4:30 0.0 l/m2 in 1 Std. -
Do, 27.01. 4:00 0.0 l/m2 in 1 Std. -
Ortszeit Stärke Spitze Richtung
km/h Bft. km/h Grad Sektor
Do, 27.01. 7:00 18 3 43 210° SW
Do, 27.01. 1:00 22 4 32 220° SW
Mi, 26.01. 19:00 11 2 29 250° W
Mi, 26.01. 13:00 18 3 29 250° W
Mi, 26.01. 7:00 7 2 18 290° W
Mi, 26.01. 1:00 11 2 18 230° SW
Di, 25.01. 19:00 7 2 14 220° SW
Di, 25.01. 13:00 4 1 11 260° W
Ortszeit Stärke Spitze Richtung
km/h Bft. km/h Grad Sektor
Do, 27.01. 7:00 18 3 36 210° SW
Do, 27.01. 6:50 18 3 - 210° SW
Do, 27.01. 6:40 20 4 - 230° SW
Do, 27.01. 6:30 22 4 37 230° SW
Do, 27.01. 6:20 22 4 - 230° SW
Do, 27.01. 6:10 22 4 - 230° SW
Do, 27.01. 6:00 26 4 44 220° SW
Do, 27.01. 5:30 29 5 43 210° SW
Do, 27.01. 5:00 29 5 40 220° SW
Do, 27.01. 4:30 25 4 32 220° SW
Do, 27.01. 4:00 22 4 29 210° SW
Ortszeit Untergrenze Bedeckung Gattung
total tief tief mittel hoch
Do, 27.01. 7:00 480 m 8/8 8/8 - - -
Do, 27.01. 1:00 390 m 8/8 8/8 - - -
Mi, 26.01. 19:00 390 m 8/8 8/8 - - -
Mi, 26.01. 13:00 330 m 8/8 8/8 - - -
Mi, 26.01. 7:00 390 m 8/8 8/8 - - -
Mi, 26.01. 1:00 300 m 8/8 8/8 - - -
Di, 25.01. 19:00 360 m 8/8 8/8 - - -
Di, 25.01. 13:00 210 m 8/8 8/8 - - -
Ortszeit Bedeckungsgrad in Achtel und Wolkenuntergrenze
Do, 27.01. 7:00 8(480m)
Do, 27.01. 6:50 8(480m)
Do, 27.01. 6:40 8
Do, 27.01. 6:30 8(450m)
Do, 27.01. 6:20 8(450m)
Do, 27.01. 6:10 8
Do, 27.01. 6:00 8(360m)
Do, 27.01. 5:30 8(330m)
Do, 27.01. 5:00 8(330m)
Do, 27.01. 4:30 8(300m)
Do, 27.01. 4:00 8(270m)
Ortszeit Luftdruck NN (hPa) Tendenz (hPa in 3 Std.)
Do, 27.01. 7:00 1028 - 1,0
Do, 27.01. 1:00 1031 - 0,8
Mi, 26.01. 19:00 1032 + 0,1
Mi, 26.01. 13:00 1033 + 0,2
Mi, 26.01. 7:00 1033 - 0,8
Mi, 26.01. 1:00 1033 - 0,3
Di, 25.01. 19:00 1034 0,0
Di, 25.01. 13:00 1034 - 0,1
Ortszeit Luftdruck NN (hPa) Tendenz (hPa in 3 Std.)
Do, 27.01. 7:00 1028 - 1,0
Do, 27.01. 6:50 1028 keine Meldung
Do, 27.01. 6:40 1029 keine Meldung
Do, 27.01. 6:30 1029 - 0,2
Do, 27.01. 6:20 1029 keine Meldung
Do, 27.01. 6:10 1029 keine Meldung
Do, 27.01. 6:00 1029 - 1,0
Do, 27.01. 5:30 1029 - 1,4
Do, 27.01. 5:00 1029 - 1,6
Do, 27.01. 4:30 1029 - 1,3
Do, 27.01. 4:00 1029 - 1,5
Ortszeit Schneehöhe (cm)
Do, 27.01. 7:00 0
Do, 27.01. 1:00 0
Mi, 26.01. 19:00 0
Mi, 26.01. 13:00 0
Mi, 26.01. 7:00 0
Mi, 26.01. 1:00 0
Di, 25.01. 19:00 0
Di, 25.01. 13:00 0
Ortszeit Schneehöhe (cm)
Do, 27.01. 7:00 0
Do, 27.01. 6:50 0
Do, 27.01. 6:40 0
Do, 27.01. 6:30 0
Do, 27.01. 6:20 0
Do, 27.01. 6:10 0
Do, 27.01. 6:00 0
Do, 27.01. 5:30 0
Do, 27.01. 5:00 0
Do, 27.01. 4:30 0
Do, 27.01. 4:00 0
Link zu dieser Seite / Seite empfehlen

Das Wetter in ...